Heroic Leader — C6ZD2 — position and weather

sailwx.info

Track history (hours):
 
Tides and Currents Weather Stations Pressure Air Temp Water Temp Dewpoint Dewpoint Depression Visibility Wind Speed Wind Dir Waves Ship Positions

Heroic Leader

Last reported at 2014-Sep-01 23:34 UTC. Time now 2014-Sep-01 23:40 UTC.
Position N 50°40' E 000°43'.

Length 200 m; draft 8.8 m.

Type: Cargo ship. MMSI: 311052700.

Date/timePositionNaut miles runAvg speedWind from/ knotsBaromVisibWave heightAir tempDewpointWater temp
2014-Sep-01 23:34N 50°40' E 000°43'1716.8
2014-Sep-01 22:33N 50°49' E 001°05'1818.0
2014-Sep-01 21:33N 51°01' E 001°27'1717.5
2014-Sep-01 20:34N 51°14' E 001°46'1616.4
2014-Sep-01 19:34N 51°27' E 002°00'1515.4
2014-Sep-01 18:33N 51°39' E 002°17'1615.1
2014-Sep-01 17:30N 51°51' E 002°34'8816.8
2014-Sep-01 12:15N 53°00' E 004°04'1217.0
2014-Sep-01 11:32N 53°08' E 004°19'2116.1
2014-Sep-01 10:12N 53°27' E 004°37'1015.2
2014-Sep-01 09:34N 53°31' E 004°52'1515.5
2014-Sep-01 08:34N 53°36' E 005°16'1616.2
2014-Sep-01 07:33N 53°41' E 005°42'1817.4
2014-Sep-01 06:32N 53°47' E 006°11'5217.6
2014-Sep-01 03:34N 53°60' E 007°37'1312.8
2014-Sep-01 02:33N 53°52' E 007°54'1514.8
2014-Sep-01 01:33N 53°44' E 008°15'1211.9
2014-Sep-01 00:33N 53°36' E 008°30'3 2.8
2014-Aug-31 23:33N 53°34' E 008°33'0 0.4
2014-Aug-31 22:33N 53°35' E 008°33'0 0.0
2014-Aug-31 21:33N 53°35' E 008°33'0 0.0
2014-Aug-31 20:33N 53°35' E 008°33'0 0.0
2014-Aug-31 19:33N 53°35' E 008°33'0 0.0
2014-Aug-31 18:33N 53°35' E 008°33'0 0.0
2014-Aug-31 17:33N 53°35' E 008°33'0 0.0
2014-Aug-31 16:33N 53°35' E 008°33'0 0.0
2014-Aug-31 15:33N 53°35' E 008°33'0 0.0
2014-Aug-31 14:33N 53°35' E 008°33'0 0.0
2014-Aug-31 13:33N 53°35' E 008°33'0 0.0
2014-Aug-31 12:33N 53°35' E 008°33'0 0.0
2014-Aug-31 11:33N 53°35' E 008°33'0 0.0
2014-Aug-31 10:33N 53°35' E 008°33'0 0.0
2014-Aug-31 09:30N 53°35' E 008°33'0 0.0
2014-Aug-31 08:33N 53°35' E 008°33'1 0.6
2014-Aug-31 07:33N 53°34' E 008°33'7 6.9
2014-Aug-31 06:34N 53°39' E 008°25'1312.6
2014-Aug-31 05:33N 53°47' E 008°09'1412.4
2014-Aug-31 04:26N 53°53' E 007°47'1313.9
2014-Aug-31 03:32N 53°54' E 007°26'1918.7
2014-Aug-31 02:33N 53°50' E 006°55'2119.3
2014-Aug-31 01:29N 53°45' E 006°21'1819.8
2014-Aug-31 00:33N 53°39' E 005°52'2020.0
2014-Aug-30 23:34N 53°33' E 005°20'2120.5
2014-Aug-30 22:33N 53°26' E 004°48'2119.7
2014-Aug-30 21:30N 53°08' E 004°29'1919.9
2014-Aug-30 20:33N 52°52' E 004°15'2019.8
2014-Aug-30 19:33N 52°37' E 003°53'8118.9
2014-Aug-30 15:17N 51°28' E 002°44'710.2
2014-Aug-30 14:34N 51°22' E 002°51'1312.1
2014-Aug-30 13:31N 51°22' E 003°11'2 2.1
2014-Aug-30 12:33N 51°20' E 003°13'2 1.5
2014-Aug-30 11:27N 51°19' E 003°14'0 0.0
2014-Aug-30 10:33N 51°19' E 003°14'0 0.0
2014-Aug-30 09:33N 51°19' E 003°14'0 0.0
2014-Aug-30 08:30N 51°19' E 003°14'0 0.0
2014-Aug-30 07:33N 51°19' E 003°14'0 0.0
2014-Aug-30 06:33N 51°19' E 003°14'0 0.0
2014-Aug-30 05:33N 51°19' E 003°14'0 0.0
2014-Aug-30 04:33N 51°19' E 003°14'0 0.0
2014-Aug-30 03:33N 51°19' E 003°14'0 0.0
2014-Aug-30 02:33N 51°19' E 003°14'0 0.0
2014-Aug-30 01:33N 51°19' E 003°14'0 0.0
2014-Aug-30 00:33N 51°19' E 003°14'0 0.0
2014-Aug-29 23:33N 51°19' E 003°14'0 0.0
2014-Aug-29 22:33N 51°19' E 003°14'0 0.0
2014-Aug-29 21:33N 51°19' E 003°14'0 0.0
2014-Aug-29 20:33N 51°19' E 003°14'0 0.0
2014-Aug-29 19:33N 51°19' E 003°14'0 0.0
2014-Aug-29 18:33N 51°19' E 003°14'0 0.0
2014-Aug-29 17:33N 51°19' E 003°14'0 0.0
2014-Aug-29 16:30N 51°19' E 003°14'0 0.0
2014-Aug-29 15:33N 51°19' E 003°14'0 0.0
2014-Aug-29 14:33N 51°19' E 003°14'0 0.0
2014-Aug-29 13:33N 51°19' E 003°14'1 0.6
2014-Aug-29 12:33N 51°18' E 003°14'0 0.0
2014-Aug-29 10:21N 51°18' E 003°14'0 0.0
2014-Aug-29 08:33N 51°18' E 003°14'0 0.0
2014-Aug-29 07:09N 51°18' E 003°14'0 0.0
2014-Aug-29 06:06N 51°18' E 003°14'0 0.0
2014-Aug-29 05:33N 51°18' E 003°14'0 0.0
2014-Aug-29 04:13N 51°18' E 003°14'0 0.0
2014-Aug-29 01:10N 51°18' E 003°14'2 3.3
2014-Aug-29 00:34N 51°20' E 003°13'1 1.2
2014-Aug-28 23:31N 51°21' E 003°12'1111.2
2014-Aug-28 22:34N 51°22' E 002°55'1111.3
2014-Aug-28 21:33N 51°22' E 002°37'1110.5
2014-Aug-28 20:32N 51°19' E 002°21'1211.9
2014-Aug-28 19:33N 51°13' E 002°05'1313.4
2014-Aug-28 18:33N 51°06' E 001°46'1413.8
2014-Aug-28 17:33N 50°56' E 001°32'3313.9
2014-Aug-28 15:12N 50°30' E 001°01'913.9
2014-Aug-28 14:33N 50°27' E 000°47'1413.9
2014-Aug-28 13:33N 50°23' E 000°27'  
2014-Aug-24 16:31N 38°32' W 009°48'1312.6
2014-Aug-24 15:29N 38°19' W 009°44'8113.2
2014-Aug-24 09:21N 37°00' W 009°20'38512.3
2014-Aug-23 02:07N 37°03' W 001°18'2514.2
2014-Aug-23 00:20N 37°20' W 000°55'  
Track history (hours):
 
Tides and Currents Weather Stations Pressure Air Temp Water Temp Dewpoint Dewpoint Depression Visibility Wind Speed Wind Dir Waves Ship Positions

Heroic Leader

Last reported at 2014-Sep-01 23:34 UTC. Time now 2014-Sep-01 23:40 UTC.
Position N 50°40' E 000°43'.

Length 200 m; draft 8.8 m.

Type: Cargo ship. MMSI: 311052700.

Date/timePositionNaut miles runAvg speedWind from/ knotsBaromVisibWave heightAir tempDewpointWater temp
2014-Sep-01 23:34N 50°40' E 000°43'1716.8
2014-Sep-01 22:33N 50°49' E 001°05'1818.0
2014-Sep-01 21:33N 51°01' E 001°27'1717.5
2014-Sep-01 20:34N 51°14' E 001°46'1616.4
2014-Sep-01 19:34N 51°27' E 002°00'1515.4
2014-Sep-01 18:33N 51°39' E 002°17'1615.1
2014-Sep-01 17:30N 51°51' E 002°34'8816.8
2014-Sep-01 12:15N 53°00' E 004°04'1217.0
2014-Sep-01 11:32N 53°08' E 004°19'2116.1
2014-Sep-01 10:12N 53°27' E 004°37'1015.2
2014-Sep-01 09:34N 53°31' E 004°52'1515.5
2014-Sep-01 08:34N 53°36' E 005°16'1616.2
2014-Sep-01 07:33N 53°41' E 005°42'1817.4
2014-Sep-01 06:32N 53°47' E 006°11'5217.6
2014-Sep-01 03:34N 53°60' E 007°37'1312.8
2014-Sep-01 02:33N 53°52' E 007°54'1514.8
2014-Sep-01 01:33N 53°44' E 008°15'1211.9
2014-Sep-01 00:33N 53°36' E 008°30'3 2.8
2014-Aug-31 23:33N 53°34' E 008°33'0 0.4
2014-Aug-31 22:33N 53°35' E 008°33'0 0.0
2014-Aug-31 21:33N 53°35' E 008°33'0 0.0
2014-Aug-31 20:33N 53°35' E 008°33'0 0.0
2014-Aug-31 19:33N 53°35' E 008°33'0 0.0
2014-Aug-31 18:33N 53°35' E 008°33'0 0.0
2014-Aug-31 17:33N 53°35' E 008°33'0 0.0
2014-Aug-31 16:33N 53°35' E 008°33'0 0.0
2014-Aug-31 15:33N 53°35' E 008°33'0 0.0
2014-Aug-31 14:33N 53°35' E 008°33'0 0.0
2014-Aug-31 13:33N 53°35' E 008°33'0 0.0
2014-Aug-31 12:33N 53°35' E 008°33'0 0.0
2014-Aug-31 11:33N 53°35' E 008°33'0 0.0
2014-Aug-31 10:33N 53°35' E 008°33'0 0.0
2014-Aug-31 09:30N 53°35' E 008°33'0 0.0
2014-Aug-31 08:33N 53°35' E 008°33'1 0.6
2014-Aug-31 07:33N 53°34' E 008°33'7 6.9
2014-Aug-31 06:34N 53°39' E 008°25'1312.6
2014-Aug-31 05:33N 53°47' E 008°09'1412.4
2014-Aug-31 04:26N 53°53' E 007°47'1313.9
2014-Aug-31 03:32N 53°54' E 007°26'1918.7
2014-Aug-31 02:33N 53°50' E 006°55'2119.3
2014-Aug-31 01:29N 53°45' E 006°21'1819.8
2014-Aug-31 00:33N 53°39' E 005°52'2020.0
2014-Aug-30 23:34N 53°33' E 005°20'2120.5
2014-Aug-30 22:33N 53°26' E 004°48'2119.7
2014-Aug-30 21:30N 53°08' E 004°29'1919.9
2014-Aug-30 20:33N 52°52' E 004°15'2019.8
2014-Aug-30 19:33N 52°37' E 003°53'8118.9
2014-Aug-30 15:17N 51°28' E 002°44'710.2
2014-Aug-30 14:34N 51°22' E 002°51'1312.1
2014-Aug-30 13:31N 51°22' E 003°11'2 2.1
2014-Aug-30 12:33N 51°20' E 003°13'2 1.5
2014-Aug-30 11:27N 51°19' E 003°14'0 0.0
2014-Aug-30 10:33N 51°19' E 003°14'0 0.0
2014-Aug-30 09:33N 51°19' E 003°14'0 0.0
2014-Aug-30 08:30N 51°19' E 003°14'0 0.0
2014-Aug-30 07:33N 51°19' E 003°14'0 0.0
2014-Aug-30 06:33N 51°19' E 003°14'0 0.0
2014-Aug-30 05:33N 51°19' E 003°14'0 0.0
2014-Aug-30 04:33N 51°19' E 003°14'0 0.0
2014-Aug-30 03:33N 51°19' E 003°14'0 0.0
2014-Aug-30 02:33N 51°19' E 003°14'0 0.0
2014-Aug-30 01:33N 51°19' E 003°14'0 0.0
2014-Aug-30 00:33N 51°19' E 003°14'0 0.0
2014-Aug-29 23:33N 51°19' E 003°14'0 0.0
2014-Aug-29 22:33N 51°19' E 003°14'0 0.0
2014-Aug-29 21:33N 51°19' E 003°14'0 0.0
2014-Aug-29 20:33N 51°19' E 003°14'0 0.0
2014-Aug-29 19:33N 51°19' E 003°14'0 0.0
2014-Aug-29 18:33N 51°19' E 003°14'0 0.0
2014-Aug-29 17:33N 51°19' E 003°14'0 0.0
2014-Aug-29 16:30N 51°19' E 003°14'0 0.0
2014-Aug-29 15:33N 51°19' E 003°14'0 0.0
2014-Aug-29 14:33N 51°19' E 003°14'0 0.0
2014-Aug-29 13:33N 51°19' E 003°14'1 0.6
2014-Aug-29 12:33N 51°18' E 003°14'0 0.0
2014-Aug-29 10:21N 51°18' E 003°14'0 0.0
2014-Aug-29 08:33N 51°18' E 003°14'0 0.0
2014-Aug-29 07:09N 51°18' E 003°14'0 0.0
2014-Aug-29 06:06N 51°18' E 003°14'0 0.0
2014-Aug-29 05:33N 51°18' E 003°14'0 0.0
2014-Aug-29 04:13N 51°18' E 003°14'0 0.0
2014-Aug-29 01:10N 51°18' E 003°14'2 3.3
2014-Aug-29 00:34N 51°20' E 003°13'1 1.2
2014-Aug-28 23:31N 51°21' E 003°12'1111.2
2014-Aug-28 22:34N 51°22' E 002°55'1111.3
2014-Aug-28 21:33N 51°22' E 002°37'1110.5
2014-Aug-28 20:32N 51°19' E 002°21'1211.9
2014-Aug-28 19:33N 51°13' E 002°05'1313.4
2014-Aug-28 18:33N 51°06' E 001°46'1413.8
2014-Aug-28 17:33N 50°56' E 001°32'3313.9
2014-Aug-28 15:12N 50°30' E 001°01'913.9
2014-Aug-28 14:33N 50°27' E 000°47'1413.9
2014-Aug-28 13:33N 50°23' E 000°27'  
2014-Aug-24 16:31N 38°32' W 009°48'1312.6
2014-Aug-24 15:29N 38°19' W 009°44'8113.2
2014-Aug-24 09:21N 37°00' W 009°20'38512.3
2014-Aug-23 02:07N 37°03' W 001°18'2514.2
2014-Aug-23 00:20N 37°20' W 000°55'  

Dump ship's entire track history